Time;durP1;ratioP1;P1;durP2;ratioP2;P2;SDS_P1;SDS_P2;PMS_P1;PMS_P2;Temp;Humidity;BMP_temperature;BMP_pressure;BME280_temperature;BME280_humidity;BME280_pressure;Samples;Min_cycle;Max_cycle;Signal;HPM_P1;HPM_P2
2023/02/05 00:00:23;;;;;;;9.80;5.00;;;1.70;99.90;;;;;;20984505;28;20033;-77
2023/02/05 00:10:24;;;;;;;9.05;4.28;;;1.60;99.90;;;;;;20997297;28;20323;-77
2023/02/05 00:20:25;;;;;;;10.40;5.40;;;1.90;99.90;;;;;;20993763;28;20028;-76
2023/02/05 00:30:27;;;;;;;18.27;5.75;;;1.90;99.90;;;;;;20994394;28;20037;-77
2023/02/05 00:40:29;;;;;;;10.35;4.38;;;1.80;99.90;;;;;;20974811;28;20039;-77
2023/02/05 00:50:30;;;;;;;16.95;5.75;;;1.60;99.90;;;;;;20992611;28;20111;-76
2023/02/05 01:00:32;;;;;;;8.13;3.47;;;1.30;99.90;;;;;;21035249;28;20028;-76
2023/02/05 01:10:34;;;;;;;7.82;3.40;;;1.10;99.90;;;;;;20993062;28;20055;-76
2023/02/05 01:20:39;;;;;;;15.63;3.80;;;1.10;99.90;;;;;;20988453;28;20029;-75
2023/02/05 01:30:40;;;;;;;8.10;3.25;;;1.10;99.90;;;;;;21000379;28;20033;-77
2023/02/05 01:40:41;;;;;;;13.90;6.20;;;1.20;99.90;;;;;;20970812;28;20044;-76
2023/02/05 01:50:48;;;;;;;13.90;5.72;;;1.00;99.90;;;;;;20989443;28;20040;-76
2023/02/05 02:00:48;;;;;;;24.33;9.80;;;0.60;99.90;;;;;;20989953;28;20033;-76
2023/02/05 02:10:51;;;;;;;19.55;6.95;;;0.50;99.90;;;;;;21026544;28;20060;-76
2023/02/05 02:21:11;;;;;;;34.05;12.80;;;0.40;99.90;;;;;;21038241;28;20031;-76
2023/02/05 02:31:34;;;;;;;15.73;5.18;;;0.20;99.90;;;;;;20987694;28;20479;-76
2023/02/05 02:41:42;;;;;;;10.55;3.70;;;0.20;99.90;;;;;;21002051;28;20514;-76
2023/02/05 02:51:46;;;;;;;23.73;7.72;;;0.20;99.90;;;;;;20983030;28;20029;-76
2023/02/05 03:01:53;;;;;;;36.28;12.73;;;0.00;99.90;;;;;;21015856;28;20056;-76
2023/02/05 03:11:54;;;;;;;12.38;3.95;;;-0.10;99.90;;;;;;21000913;28;20074;-76
2023/02/05 03:22:03;;;;;;;32.25;13.45;;;-0.20;99.90;;;;;;20996316;28;20028;-76
2023/02/05 03:32:18;;;;;;;18.38;4.53;;;-0.60;99.90;;;;;;21022869;28;20387;-76
2023/02/05 03:42:35;;;;;;;63.28;19.10;;;-0.60;99.90;;;;;;21017886;28;20488;-76
2023/02/05 03:52:42;;;;;;;12.88;3.50;;;-0.60;99.90;;;;;;21012578;28;20119;-76
2023/02/05 04:02:45;;;;;;;24.55;3.92;;;-0.80;99.90;;;;;;20983137;28;20028;-76
2023/02/05 04:12:50;;;;;;;10.45;3.22;;;-1.00;99.90;;;;;;20994169;28;20075;-76
2023/02/05 04:22:52;;;;;;;11.55;4.30;;;-0.80;99.90;;;;;;21000719;28;20028;-76
2023/02/05 04:32:54;;;;;;;9.68;3.95;;;-0.60;99.90;;;;;;20993990;28;20035;-76
2023/02/05 04:42:55;;;;;;;9.27;3.45;;;-0.70;99.90;;;;;;21013941;28;20020;-76
2023/02/05 04:52:56;;;;;;;12.93;4.63;;;-1.10;99.90;;;;;;21012203;28;20111;-77
2023/02/05 05:02:57;;;;;;;17.55;7.07;;;-1.10;99.90;;;;;;21008511;28;20495;-77
2023/02/05 05:12:57;;;;;;;27.15;7.13;;;-1.20;99.90;;;;;;21014319;28;20028;-76
2023/02/05 05:22:59;;;;;;;23.95;8.55;;;-1.00;99.90;;;;;;21013330;28;20024;-77
2023/02/05 05:33:00;;;;;;;16.33;5.03;;;-1.10;99.90;;;;;;21012182;28;20031;-77
2023/02/05 05:53:20;;;;;;;23.83;5.00;;;-1.30;99.90;;;;;;21004547;28;20044;-77
2023/02/05 06:03:22;;;;;;;11.73;4.38;;;-1.30;99.90;;;;;;20989339;28;20033;-77
2023/02/05 06:13:24;;;;;;;17.23;6.63;;;-1.30;99.90;;;;;;21005042;28;20407;-77
2023/02/05 06:23:24;;;;;;;9.23;4.45;;;-1.40;99.90;;;;;;21006613;28;20085;-78
2023/02/05 06:33:25;;;;;;;34.60;8.95;;;-1.40;99.90;;;;;;21019882;28;20032;-77
2023/02/05 06:43:26;;;;;;;28.02;7.05;;;-1.50;99.90;;;;;;20992472;28;20048;-76
2023/02/05 06:53:27;;;;;;;35.50;9.23;;;-1.20;99.90;;;;;;21013861;28;20067;-76
2023/02/05 07:03:27;;;;;;;42.28;8.23;;;-0.80;99.90;;;;;;21013648;28;20121;-77
2023/02/05 07:13:29;;;;;;;70.55;9.25;;;-0.60;99.90;;;;;;21018402;28;20025;-78
2023/02/05 07:23:30;;;;;;;91.13;9.80;;;-0.50;99.90;;;;;;21016669;28;20377;-77
2023/02/05 07:33:31;;;;;;;29.42;8.73;;;-0.30;99.90;;;;;;20992171;28;20054;-76
2023/02/05 07:43:33;;;;;;;18.67;7.88;;;-0.50;99.90;;;;;;21007028;28;20039;-77
2023/02/05 07:53:34;;;;;;;27.15;10.90;;;-0.10;99.90;;;;;;21008494;28;20449;-78
2023/02/05 08:03:35;;;;;;;26.25;8.43;;;1.00;99.90;;;;;;21008691;28;20060;-77
2023/02/05 08:13:36;;;;;;;19.52;8.95;;;1.20;99.90;;;;;;20970702;28;20067;-76
2023/02/05 08:23:37;;;;;;;29.35;8.98;;;1.40;99.90;;;;;;21001624;28;20028;-76
2023/02/05 08:33:38;;;;;;;53.20;9.20;;;1.10;99.90;;;;;;20977860;28;20035;-77
2023/02/05 08:43:46;;;;;;;25.95;8.05;;;0.60;99.90;;;;;;21013179;28;20138;-76
2023/02/05 08:53:48;;;;;;;35.70;9.90;;;0.80;99.90;;;;;;20993521;28;20036;-76
2023/02/05 09:03:49;;;;;;;25.88;8.65;;;0.50;99.90;;;;;;20992004;28;20089;-76
2023/02/05 09:13:50;;;;;;;36.05;11.32;;;0.70;99.90;;;;;;20993167;28;20028;-77
2023/02/05 09:23:52;;;;;;;23.00;9.73;;;1.10;99.90;;;;;;20992313;28;20028;-77
2023/02/05 09:33:54;;;;;;;21.58;9.25;;;1.50;99.90;;;;;;21008527;28;20037;-78
2023/02/05 09:44:03;;;;;;;22.45;7.57;;;1.70;99.90;;;;;;21017000;28;20028;-77
2023/02/05 09:54:29;;;;;;;23.90;9.07;;;1.90;99.90;;;;;;20977079;28;20044;-77
2023/02/05 10:04:29;;;;;;;25.50;9.65;;;1.80;99.90;;;;;;21005969;28;20058;-76
2023/02/05 10:14:36;;;;;;;29.23;12.50;;;2.00;99.90;;;;;;21004688;28;20504;-75
2023/02/05 10:25:14;;;;;;;28.67;12.93;;;2.00;99.90;;;;;;21003884;28;20487;-76
2023/02/05 10:35:33;;;;;;;36.63;11.68;;;2.00;99.90;;;;;;21003293;28;20028;-76
2023/02/05 10:45:34;;;;;;;43.08;16.70;;;2.10;99.90;;;;;;21005048;28;20017;-76
2023/02/05 10:55:36;;;;;;;34.95;13.35;;;2.10;99.90;;;;;;21061410;28;20089;-76
2023/02/05 11:05:40;;;;;;;43.05;18.10;;;2.50;99.90;;;;;;20997212;28;20024;-76
2023/02/05 11:15:56;;;;;;;24.15;9.85;;;2.40;99.90;;;;;;21032010;28;20043;-74
2023/02/05 11:26:05;;;;;;;30.27;13.15;;;2.60;99.90;;;;;;20997108;28;20101;-76
2023/02/05 11:36:13;;;;;;;37.40;11.40;;;2.70;99.90;;;;;;21072499;28;20031;-76
2023/02/05 11:46:20;;;;;;;54.17;16.35;;;2.70;99.90;;;;;;21081347;28;20581;-76
2023/02/05 11:56:24;;;;;;;37.50;13.25;;;2.60;99.90;;;;;;21036620;28;20119;-75
2023/02/05 12:06:51;;;;;;;40.58;14.10;;;2.70;99.90;;;;;;20995319;28;20028;-75
2023/02/05 12:17:11;;;;;;;45.00;14.50;;;2.80;99.90;;;;;;20984270;28;20040;-76
2023/02/05 12:27:31;;;;;;;32.10;12.47;;;2.90;99.90;;;;;;20992495;28;20024;-75
2023/02/05 12:38:00;;;;;;;44.10;16.17;;;3.00;99.90;;;;;;20966059;28;20760;-76
2023/02/05 12:48:38;;;;;;;34.42;13.48;;;3.10;99.90;;;;;;20887682;28;20091;-76
2023/02/05 12:58:46;;;;;;;30.30;11.82;;;3.30;99.90;;;;;;20876794;28;20117;-77
2023/02/05 13:08:47;;;;;;;28.63;10.70;;;3.60;99.90;;;;;;20881497;28;20075;-76
2023/02/05 13:19:00;;;;;;;23.33;9.35;;;3.50;99.90;;;;;;20893283;28;20029;-76
2023/02/05 13:29:01;;;;;;;21.38;9.07;;;3.60;99.90;;;;;;20894280;28;20037;-77
2023/02/05 13:39:05;;;;;;;17.58;8.75;;;3.70;99.90;;;;;;20893846;28;20484;-77
2023/02/05 13:49:40;;;;;;;31.95;10.90;;;3.90;99.90;;;;;;20838072;28;20033;-76
2023/02/05 13:59:50;;;;;;;73.93;27.20;;;4.00;99.90;;;;;;20794581;28;20381;-76
2023/02/05 14:09:55;;;;;;;30.10;11.77;;;4.20;99.90;;;;;;20794395;28;20034;-76
2023/02/05 14:19:57;;;;;;;18.88;9.65;;;4.30;99.90;;;;;;20825414;28;20032;-76
2023/02/05 14:30:36;;;;;;;21.50;7.63;;;4.20;99.90;;;;;;20827909;28;20037;-77
2023/02/05 14:40:37;;;;;;;22.30;9.27;;;4.10;99.90;;;;;;20805073;28;20034;-76
2023/02/05 14:50:39;;;;;;;33.60;12.90;;;4.10;99.90;;;;;;20787386;28;20022;-76
2023/02/05 15:00:41;;;;;;;26.98;12.15;;;4.00;99.90;;;;;;20778591;28;20022;-76
2023/02/05 15:10:53;;;;;;;25.77;10.27;;;3.80;99.90;;;;;;20777497;28;20484;-76
2023/02/05 15:20:56;;;;;;;30.45;12.63;;;3.70;99.90;;;;;;20790511;28;20048;-76
2023/02/05 15:31:06;;;;;;;31.80;10.95;;;3.70;99.90;;;;;;20778546;28;20045;-76
2023/02/05 15:41:10;;;;;;;26.85;10.55;;;3.70;99.90;;;;;;20777170;28;20042;-77
2023/02/05 15:51:32;;;;;;;17.08;7.13;;;3.80;99.90;;;;;;20802397;28;20024;-77
2023/02/05 16:01:45;;;;;;;14.65;5.35;;;3.90;99.90;;;;;;20786141;28;20087;-75
2023/02/05 16:11:47;;;;;;;6.30;3.35;;;3.80;99.90;;;;;;20774470;28;20057;-77
2023/02/05 16:21:56;;;;;;;26.90;9.38;;;3.70;99.90;;;;;;20782582;28;20429;-77
2023/02/05 16:32:01;;;;;;;19.33;9.63;;;3.60;99.90;;;;;;20787924;28;20075;-77
2023/02/05 16:42:36;;;;;;;18.75;9.05;;;3.50;99.90;;;;;;20790353;28;20160;-77
2023/02/05 16:52:37;;;;;;;21.20;9.27;;;3.50;99.90;;;;;;20784275;28;20025;-75
2023/02/05 17:02:40;;;;;;;28.80;10.45;;;3.40;99.90;;;;;;20783791;28;20035;-76
2023/02/05 17:12:56;;;;;;;20.38;9.45;;;3.40;99.90;;;;;;20767440;28;20029;-77
2023/02/05 17:23:03;;;;;;;19.80;9.65;;;3.40;99.90;;;;;;20869091;28;20166;-77
2023/02/05 17:33:08;;;;;;;16.85;7.10;;;3.30;99.90;;;;;;20916496;28;20125;-76
2023/02/05 17:43:09;;;;;;;16.05;8.93;;;3.30;99.90;;;;;;20831616;28;20508;-76
2023/02/05 17:53:12;;;;;;;24.40;11.15;;;3.30;99.90;;;;;;20829685;28;20033;-76
2023/02/05 18:03:13;;;;;;;19.73;8.77;;;3.20;99.90;;;;;;20834661;28;20567;-76
2023/02/05 18:13:15;;;;;;;19.52;10.95;;;3.20;99.90;;;;;;20829219;28;20067;-76
2023/02/05 18:23:16;;;;;;;17.02;8.88;;;3.00;99.90;;;;;;20830246;28;20465;-76
2023/02/05 18:33:17;;;;;;;14.40;8.32;;;3.00;99.90;;;;;;20830169;28;20057;-76
2023/02/05 18:43:17;;;;;;;17.23;8.27;;;2.90;99.90;;;;;;20870833;28;20033;-76
2023/02/05 18:53:18;;;;;;;15.52;6.50;;;2.70;99.90;;;;;;20827845;28;20033;-76
2023/02/05 19:03:19;;;;;;;12.52;6.45;;;2.70;99.90;;;;;;20798482;28;20107;-76
2023/02/05 19:13:20;;;;;;;9.00;5.00;;;2.70;99.90;;;;;;20793830;28;20394;-75
2023/02/05 19:23:21;;;;;;;12.43;6.18;;;2.60;99.90;;;;;;20781452;28;20476;-76
2023/02/05 19:33:21;;;;;;;12.90;5.75;;;2.60;99.90;;;;;;20815831;28;20393;-76
2023/02/05 19:43:22;;;;;;;10.15;5.18;;;2.70;99.90;;;;;;20803020;28;20068;-77
2023/02/05 19:53:23;;;;;;;13.15;6.05;;;2.50;99.90;;;;;;20805773;28;20131;-77
2023/02/05 20:03:29;;;;;;;16.98;6.55;;;2.50;99.90;;;;;;20828570;28;20037;-78
2023/02/05 20:13:31;;;;;;;13.25;6.15;;;2.40;99.90;;;;;;20880004;28;20072;-78
2023/02/05 20:23:33;;;;;;;22.63;8.40;;;2.40;99.90;;;;;;20852213;28;20531;-78
2023/02/05 20:33:34;;;;;;;9.65;5.75;;;2.30;99.90;;;;;;20779281;28;20037;-75
2023/02/05 20:43:34;;;;;;;16.65;7.80;;;2.30;99.90;;;;;;20809396;28;20033;-77
2023/02/05 20:53:36;;;;;;;17.85;8.63;;;2.30;99.90;;;;;;20820857;28;20104;-77
2023/02/05 21:03:40;;;;;;;19.17;7.18;;;2.50;99.90;;;;;;20841881;28;20083;-76
2023/02/05 21:13:43;;;;;;;7.60;4.80;;;2.60;99.90;;;;;;20826356;28;20051;-75
2023/02/05 21:23:44;;;;;;;9.15;4.50;;;2.50;99.90;;;;;;20838990;28;20032;-75
2023/02/05 21:33:46;;;;;;;7.65;3.80;;;2.50;99.90;;;;;;20764017;28;20412;-77
2023/02/05 21:43:52;;;;;;;6.13;3.20;;;2.50;99.90;;;;;;20828669;28;20448;-77
2023/02/05 21:53:56;;;;;;;8.68;4.70;;;2.50;99.90;;;;;;20829957;28;20042;-77
2023/02/05 22:03:59;;;;;;;12.65;6.30;;;2.60;99.90;;;;;;20811599;28;20044;-77
2023/02/05 22:14:00;;;;;;;16.98;8.27;;;2.70;99.90;;;;;;20826343;28;20029;-77
2023/02/05 22:24:02;;;;;;;20.52;9.23;;;2.70;99.90;;;;;;20785078;28;20409;-77
2023/02/05 22:34:03;;;;;;;24.35;10.30;;;2.70;99.90;;;;;;20822016;28;20396;-76
2023/02/05 22:44:06;;;;;;;26.05;10.63;;;2.80;99.90;;;;;;20868822;28;20491;-76
2023/02/05 22:54:10;;;;;;;24.75;10.63;;;2.80;99.90;;;;;;20800848;28;20121;-77
2023/02/05 23:04:11;;;;;;;20.65;10.50;;;2.80;99.90;;;;;;20814854;28;20163;-77
2023/02/05 23:14:14;;;;;;;23.63;11.35;;;2.80;99.90;;;;;;20817087;28;20057;-77
2023/02/05 23:24:16;;;;;;;27.10;12.60;;;2.80;99.90;;;;;;20820297;28;20026;-76
2023/02/05 23:34:17;;;;;;;25.42;11.65;;;2.80;99.90;;;;;;20822672;28;20476;-76
2023/02/05 23:44:19;;;;;;;24.38;10.32;;;2.80;99.90;;;;;;20820567;28;20026;-76
2023/02/05 23:54:21;;;;;;;14.23;7.28;;;2.90;99.90;;;;;;20825491;28;20033;-76
